sensor_id;sensor_type;location;lat;lon;timestamp;P1;durP1;ratioP1;P2;durP2;ratioP2
46463;SDS011;32161;48.148;-1.554;2024-02-28T00:02:18;21.20;;;11.85;;
46463;SDS011;32161;48.148;-1.554;2024-02-28T00:04:46;16.83;;;9.73;;
46463;SDS011;32161;48.148;-1.554;2024-02-28T00:07:14;19.98;;;10.52;;
46463;SDS011;32161;48.148;-1.554;2024-02-28T00:09:42;18.35;;;10.93;;
46463;SDS011;32161;48.148;-1.554;2024-02-28T00:12:10;15.98;;;10.75;;
46463;SDS011;32161;48.148;-1.554;2024-02-28T00:14:39;16.60;;;10.32;;
46463;SDS011;32161;48.148;-1.554;2024-02-28T00:17:06;16.40;;;10.25;;
46463;SDS011;32161;48.148;-1.554;2024-02-28T00:19:34;13.60;;;9.95;;
46463;SDS011;32161;48.148;-1.554;2024-02-28T00:22:01;16.48;;;10.05;;
46463;SDS011;32161;48.148;-1.554;2024-02-28T00:24:29;18.50;;;10.82;;
46463;SDS011;32161;48.148;-1.554;2024-02-28T00:26:56;14.93;;;10.30;;
46463;SDS011;32161;48.148;-1.554;2024-02-28T00:29:24;12.23;;;10.05;;
46463;SDS011;32161;48.148;-1.554;2024-02-28T00:31:53;15.55;;;10.45;;
46463;SDS011;32161;48.148;-1.554;2024-02-28T00:34:21;13.52;;;10.07;;
46463;SDS011;32161;48.148;-1.554;2024-02-28T00:36:48;16.30;;;10.50;;
46463;SDS011;32161;48.148;-1.554;2024-02-28T00:39:16;14.95;;;10.75;;
46463;SDS011;32161;48.148;-1.554;2024-02-28T00:41:43;19.50;;;11.05;;
46463;SDS011;32161;48.148;-1.554;2024-02-28T00:44:11;13.00;;;9.38;;
46463;SDS011;32161;48.148;-1.554;2024-02-28T00:46:39;14.85;;;9.52;;
46463;SDS011;32161;48.148;-1.554;2024-02-28T00:49:07;11.65;;;9.20;;
46463;SDS011;32161;48.148;-1.554;2024-02-28T00:51:35;13.48;;;9.93;;
46463;SDS011;32161;48.148;-1.554;2024-02-28T00:54:03;12.25;;;9.35;;
46463;SDS011;32161;48.148;-1.554;2024-02-28T00:56:30;14.65;;;9.88;;
46463;SDS011;32161;48.148;-1.554;2024-02-28T00:58:58;14.95;;;10.40;;
46463;SDS011;32161;48.148;-1.554;2024-02-28T01:01:25;13.95;;;9.98;;
46463;SDS011;32161;48.148;-1.554;2024-02-28T01:03:53;14.95;;;9.75;;
46463;SDS011;32161;48.148;-1.554;2024-02-28T01:06:22;14.65;;;10.93;;
46463;SDS011;32161;48.148;-1.554;2024-02-28T01:08:49;14.50;;;10.05;;
46463;SDS011;32161;48.148;-1.554;2024-02-28T01:11:17;16.63;;;9.80;;
46463;SDS011;32161;48.148;-1.554;2024-02-28T01:13:44;13.32;;;9.25;;
46463;SDS011;32161;48.148;-1.554;2024-02-28T01:16:12;11.20;;;8.48;;
46463;SDS011;32161;48.148;-1.554;2024-02-28T01:18:39;14.45;;;8.70;;
46463;SDS011;32161;48.148;-1.554;2024-02-28T01:21:07;13.80;;;8.80;;
46463;SDS011;32161;48.148;-1.554;2024-02-28T01:23:36;13.70;;;8.05;;
46463;SDS011;32161;48.148;-1.554;2024-02-28T01:26:03;11.73;;;7.35;;
46463;SDS011;32161;48.148;-1.554;2024-02-28T01:28:31;13.38;;;7.10;;
46463;SDS011;32161;48.148;-1.554;2024-02-28T01:30:59;11.65;;;8.05;;
46463;SDS011;32161;48.148;-1.554;2024-02-28T01:33:26;11.65;;;7.13;;
46463;SDS011;32161;48.148;-1.554;2024-02-28T01:35:54;7.47;;;6.47;;
46463;SDS011;32161;48.148;-1.554;2024-02-28T01:38:21;10.00;;;7.32;;
46463;SDS011;32161;48.148;-1.554;2024-02-28T01:40:50;7.82;;;6.43;;
46463;SDS011;32161;48.148;-1.554;2024-02-28T01:43:18;12.60;;;7.28;;
46463;SDS011;32161;48.148;-1.554;2024-02-28T01:45:46;13.27;;;8.05;;
46463;SDS011;32161;48.148;-1.554;2024-02-28T01:48:13;12.50;;;8.40;;
46463;SDS011;32161;48.148;-1.554;2024-02-28T01:50:41;13.63;;;7.47;;
46463;SDS011;32161;48.148;-1.554;2024-02-28T01:53:09;9.48;;;7.13;;
46463;SDS011;32161;48.148;-1.554;2024-02-28T01:55:39;9.65;;;7.47;;
46463;SDS011;32161;48.148;-1.554;2024-02-28T01:58:08;11.27;;;7.70;;
46463;SDS011;32161;48.148;-1.554;2024-02-28T02:00:36;8.93;;;7.63;;
46463;SDS011;32161;48.148;-1.554;2024-02-28T02:03:04;10.93;;;7.43;;
46463;SDS011;32161;48.148;-1.554;2024-02-28T02:05:31;8.40;;;7.25;;
46463;SDS011;32161;48.148;-1.554;2024-02-28T02:07:59;9.40;;;7.20;;
46463;SDS011;32161;48.148;-1.554;2024-02-28T02:10:28;7.22;;;6.30;;
46463;SDS011;32161;48.148;-1.554;2024-02-28T02:12:55;8.05;;;7.30;;
46463;SDS011;32161;48.148;-1.554;2024-02-28T02:15:33;8.38;;;6.43;;
46463;SDS011;32161;48.148;-1.554;2024-02-28T02:18:00;9.80;;;6.35;;
46463;SDS011;32161;48.148;-1.554;2024-02-28T02:20:28;8.68;;;6.10;;
46463;SDS011;32161;48.148;-1.554;2024-02-28T02:23:00;9.57;;;6.23;;
46463;SDS011;32161;48.148;-1.554;2024-02-28T02:25:28;9.25;;;6.07;;
46463;SDS011;32161;48.148;-1.554;2024-02-28T02:27:55;7.75;;;6.32;;
46463;SDS011;32161;48.148;-1.554;2024-02-28T02:30:23;7.93;;;6.45;;
46463;SDS011;32161;48.148;-1.554;2024-02-28T02:32:50;11.32;;;6.40;;
46463;SDS011;32161;48.148;-1.554;2024-02-28T02:35:18;9.10;;;6.28;;
46463;SDS011;32161;48.148;-1.554;2024-02-28T02:37:45;13.07;;;6.82;;
46463;SDS011;32161;48.148;-1.554;2024-02-28T02:40:14;10.98;;;6.25;;
46463;SDS011;32161;48.148;-1.554;2024-02-28T02:42:42;6.30;;;5.57;;
46463;SDS011;32161;48.148;-1.554;2024-02-28T02:45:10;9.50;;;5.88;;
46463;SDS011;32161;48.148;-1.554;2024-02-28T02:47:37;6.65;;;6.00;;
46463;SDS011;32161;48.148;-1.554;2024-02-28T02:50:05;8.75;;;5.63;;
46463;SDS011;32161;48.148;-1.554;2024-02-28T02:52:33;12.85;;;6.78;;
46463;SDS011;32161;48.148;-1.554;2024-02-28T02:55:01;9.50;;;5.50;;
46463;SDS011;32161;48.148;-1.554;2024-02-28T02:57:31;9.63;;;6.25;;
46463;SDS011;32161;48.148;-1.554;2024-02-28T02:59:59;9.80;;;5.90;;
46463;SDS011;32161;48.148;-1.554;2024-02-28T03:02:27;7.68;;;5.32;;
46463;SDS011;32161;48.148;-1.554;2024-02-28T03:04:54;9.85;;;5.50;;
46463;SDS011;32161;48.148;-1.554;2024-02-28T03:07:22;8.00;;;5.40;;
46463;SDS011;32161;48.148;-1.554;2024-02-28T03:09:49;6.70;;;5.38;;
46463;SDS011;32161;48.148;-1.554;2024-02-28T03:12:17;7.38;;;5.45;;
46463;SDS011;32161;48.148;-1.554;2024-02-28T03:14:47;8.90;;;5.32;;
46463;SDS011;32161;48.148;-1.554;2024-02-28T03:17:15;9.07;;;5.57;;
46463;SDS011;32161;48.148;-1.554;2024-02-28T03:19:42;7.03;;;5.47;;
46463;SDS011;32161;48.148;-1.554;2024-02-28T03:22:10;6.47;;;5.60;;
46463;SDS011;32161;48.148;-1.554;2024-02-28T03:24:37;8.40;;;5.45;;
46463;SDS011;32161;48.148;-1.554;2024-02-28T03:27:05;7.63;;;5.05;;
46463;SDS011;32161;48.148;-1.554;2024-02-28T03:29:33;5.30;;;4.80;;
46463;SDS011;32161;48.148;-1.554;2024-02-28T03:32:03;7.97;;;5.43;;
46463;SDS011;32161;48.148;-1.554;2024-02-28T03:34:31;6.65;;;5.10;;
46463;SDS011;32161;48.148;-1.554;2024-02-28T03:36:58;11.38;;;5.25;;
46463;SDS011;32161;48.148;-1.554;2024-02-28T03:39:26;7.35;;;5.53;;
46463;SDS011;32161;48.148;-1.554;2024-02-28T03:41:53;5.70;;;5.20;;
46463;SDS011;32161;48.148;-1.554;2024-02-28T03:44:21;10.02;;;5.93;;
46463;SDS011;32161;48.148;-1.554;2024-02-28T03:46:51;5.07;;;4.57;;
46463;SDS011;32161;48.148;-1.554;2024-02-28T03:49:20;8.82;;;4.80;;
46463;SDS011;32161;48.148;-1.554;2024-02-28T03:51:47;8.50;;;5.18;;
46463;SDS011;32161;48.148;-1.554;2024-02-28T03:54:15;7.75;;;4.82;;
46463;SDS011;32161;48.148;-1.554;2024-02-28T03:56:41;9.27;;;5.32;;
46463;SDS011;32161;48.148;-1.554;2024-02-28T03:59:09;6.00;;;5.40;;
46463;SDS011;32161;48.148;-1.554;2024-02-28T04:01:37;6.53;;;4.82;;
46463;SDS011;32161;48.148;-1.554;2024-02-28T04:04:04;6.18;;;5.25;;
46463;SDS011;32161;48.148;-1.554;2024-02-28T04:06:34;6.53;;;4.65;;
46463;SDS011;32161;48.148;-1.554;2024-02-28T04:09:01;6.35;;;4.88;;
46463;SDS011;32161;48.148;-1.554;2024-02-28T04:11:29;5.78;;;5.03;;
46463;SDS011;32161;48.148;-1.554;2024-02-28T04:13:56;6.65;;;4.65;;
46463;SDS011;32161;48.148;-1.554;2024-02-28T04:16:24;6.50;;;5.03;;
46463;SDS011;32161;48.148;-1.554;2024-02-28T04:18:51;7.97;;;4.88;;
46463;SDS011;32161;48.148;-1.554;2024-02-28T04:21:19;7.43;;;4.68;;
46463;SDS011;32161;48.148;-1.554;2024-02-28T04:23:48;5.88;;;5.10;;
46463;SDS011;32161;48.148;-1.554;2024-02-28T04:26:16;7.63;;;5.15;;
46463;SDS011;32161;48.148;-1.554;2024-02-28T04:28:43;7.07;;;4.68;;
46463;SDS011;32161;48.148;-1.554;2024-02-28T04:31:11;5.82;;;4.38;;
46463;SDS011;32161;48.148;-1.554;2024-02-28T04:33:38;5.40;;;4.90;;
46463;SDS011;32161;48.148;-1.554;2024-02-28T04:36:06;6.05;;;4.95;;
46463;SDS011;32161;48.148;-1.554;2024-02-28T04:38:33;5.07;;;4.68;;
46463;SDS011;32161;48.148;-1.554;2024-02-28T04:41:03;8.15;;;5.28;;
46463;SDS011;32161;48.148;-1.554;2024-02-28T04:43:30;13.98;;;8.45;;
46463;SDS011;32161;48.148;-1.554;2024-02-28T04:45:58;8.55;;;5.45;;
46463;SDS011;32161;48.148;-1.554;2024-02-28T04:48:25;6.20;;;5.40;;
46463;SDS011;32161;48.148;-1.554;2024-02-28T04:50:53;6.25;;;5.00;;
46463;SDS011;32161;48.148;-1.554;2024-02-28T04:53:20;8.35;;;4.55;;
46463;SDS011;32161;48.148;-1.554;2024-02-28T04:55:48;5.60;;;4.78;;
46463;SDS011;32161;48.148;-1.554;2024-02-28T04:58:17;5.45;;;4.80;;
46463;SDS011;32161;48.148;-1.554;2024-02-28T05:00:45;10.20;;;5.18;;
46463;SDS011;32161;48.148;-1.554;2024-02-28T05:03:13;25.35;;;14.13;;
46463;SDS011;32161;48.148;-1.554;2024-02-28T05:05:41;23.38;;;14.05;;
46463;SDS011;32161;48.148;-1.554;2024-02-28T05:08:08;9.93;;;7.55;;
46463;SDS011;32161;48.148;-1.554;2024-02-28T05:10:36;9.38;;;5.75;;
46463;SDS011;32161;48.148;-1.554;2024-02-28T05:13:04;7.13;;;5.13;;
46463;SDS011;32161;48.148;-1.554;2024-02-28T05:15:33;7.57;;;5.00;;
46463;SDS011;32161;48.148;-1.554;2024-02-28T05:18:00;5.75;;;5.25;;
46463;SDS011;32161;48.148;-1.554;2024-02-28T05:20:28;10.30;;;6.30;;
46463;SDS011;32161;48.148;-1.554;2024-02-28T05:22:55;9.73;;;4.97;;
46463;SDS011;32161;48.148;-1.554;2024-02-28T05:25:23;8.98;;;6.20;;
46463;SDS011;32161;48.148;-1.554;2024-02-28T05:27:50;8.80;;;4.78;;
46463;SDS011;32161;48.148;-1.554;2024-02-28T05:30:18;6.60;;;4.50;;
46463;SDS011;32161;48.148;-1.554;2024-02-28T05:32:47;5.93;;;4.05;;
46463;SDS011;32161;48.148;-1.554;2024-02-28T05:35:15;7.80;;;4.78;;
46463;SDS011;32161;48.148;-1.554;2024-02-28T05:37:43;5.70;;;4.43;;
46463;SDS011;32161;48.148;-1.554;2024-02-28T05:40:11;8.52;;;4.03;;
46463;SDS011;32161;48.148;-1.554;2024-02-28T05:42:39;6.88;;;4.47;;
46463;SDS011;32161;48.148;-1.554;2024-02-28T05:45:08;10.20;;;4.70;;
46463;SDS011;32161;48.148;-1.554;2024-02-28T05:47:37;8.60;;;4.75;;
46463;SDS011;32161;48.148;-1.554;2024-02-28T05:50:06;7.30;;;4.88;;
46463;SDS011;32161;48.148;-1.554;2024-02-28T05:52:36;10.88;;;5.30;;
46463;SDS011;32161;48.148;-1.554;2024-02-28T05:55:04;7.88;;;5.35;;
46463;SDS011;32161;48.148;-1.554;2024-02-28T05:57:32;8.70;;;5.72;;
46463;SDS011;32161;48.148;-1.554;2024-02-28T06:00:00;5.78;;;4.88;;
46463;SDS011;32161;48.148;-1.554;2024-02-28T06:02:34;5.32;;;4.78;;
46463;SDS011;32161;48.148;-1.554;2024-02-28T06:05:02;6.30;;;4.93;;
46463;SDS011;32161;48.148;-1.554;2024-02-28T06:07:32;5.88;;;5.22;;
46463;SDS011;32161;48.148;-1.554;2024-02-28T06:10:00;8.55;;;5.47;;
46463;SDS011;32161;48.148;-1.554;2024-02-28T06:12:27;9.35;;;5.88;;
46463;SDS011;32161;48.148;-1.554;2024-02-28T06:14:55;6.85;;;5.38;;
46463;SDS011;32161;48.148;-1.554;2024-02-28T06:17:23;6.85;;;5.00;;
46463;SDS011;32161;48.148;-1.554;2024-02-28T06:19:50;8.35;;;5.50;;
46463;SDS011;32161;48.148;-1.554;2024-02-28T06:22:18;6.57;;;4.60;;
46463;SDS011;32161;48.148;-1.554;2024-02-28T06:24:47;12.68;;;5.95;;
46463;SDS011;32161;48.148;-1.554;2024-02-28T06:27:14;8.70;;;5.65;;
46463;SDS011;32161;48.148;-1.554;2024-02-28T06:29:42;8.30;;;5.57;;
46463;SDS011;32161;48.148;-1.554;2024-02-28T06:32:10;18.02;;;7.65;;
46463;SDS011;32161;48.148;-1.554;2024-02-28T06:34:37;7.72;;;5.18;;
46463;SDS011;32161;48.148;-1.554;2024-02-28T06:37:05;9.27;;;6.10;;
46463;SDS011;32161;48.148;-1.554;2024-02-28T06:39:32;7.95;;;5.28;;
46463;SDS011;32161;48.148;-1.554;2024-02-28T06:42:01;8.10;;;5.85;;
46463;SDS011;32161;48.148;-1.554;2024-02-28T06:44:29;7.50;;;5.57;;
46463;SDS011;32161;48.148;-1.554;2024-02-28T06:46:56;8.35;;;5.97;;
46463;SDS011;32161;48.148;-1.554;2024-02-28T06:49:24;8.05;;;5.55;;
46463;SDS011;32161;48.148;-1.554;2024-02-28T06:51:51;11.85;;;6.32;;
46463;SDS011;32161;48.148;-1.554;2024-02-28T06:54:20;12.77;;;5.93;;
46463;SDS011;32161;48.148;-1.554;2024-02-28T06:56:47;6.70;;;5.70;;
46463;SDS011;32161;48.148;-1.554;2024-02-28T06:59:16;14.25;;;6.50;;
46463;SDS011;32161;48.148;-1.554;2024-02-28T07:01:44;12.43;;;6.88;;
46463;SDS011;32161;48.148;-1.554;2024-02-28T07:04:11;12.25;;;7.70;;
46463;SDS011;32161;48.148;-1.554;2024-02-28T07:06:39;17.85;;;9.43;;
46463;SDS011;32161;48.148;-1.554;2024-02-28T07:09:08;9.00;;;6.55;;
46463;SDS011;32161;48.148;-1.554;2024-02-28T07:11:37;14.50;;;7.18;;
46463;SDS011;32161;48.148;-1.554;2024-02-28T07:14:04;16.50;;;7.65;;
46463;SDS011;32161;48.148;-1.554;2024-02-28T07:16:33;18.77;;;7.22;;
46463;SDS011;32161;48.148;-1.554;2024-02-28T07:19:01;22.55;;;8.20;;
46463;SDS011;32161;48.148;-1.554;2024-02-28T07:21:29;17.67;;;7.85;;
46463;SDS011;32161;48.148;-1.554;2024-02-28T07:23:57;17.73;;;7.75;;
46463;SDS011;32161;48.148;-1.554;2024-02-28T07:26:25;16.17;;;7.47;;
46463;SDS011;32161;48.148;-1.554;2024-02-28T07:28:52;21.20;;;8.18;;
46463;SDS011;32161;48.148;-1.554;2024-02-28T07:31:20;13.32;;;7.80;;
46463;SDS011;32161;48.148;-1.554;2024-02-28T07:33:49;16.90;;;8.85;;
46463;SDS011;32161;48.148;-1.554;2024-02-28T07:36:16;9.82;;;6.82;;
46463;SDS011;32161;48.148;-1.554;2024-02-28T07:38:44;12.32;;;6.93;;
46463;SDS011;32161;48.148;-1.554;2024-02-28T07:41:12;7.72;;;5.78;;
46463;SDS011;32161;48.148;-1.554;2024-02-28T07:43:41;10.25;;;6.40;;
46463;SDS011;32161;48.148;-1.554;2024-02-28T07:46:10;8.02;;;5.82;;
46463;SDS011;32161;48.148;-1.554;2024-02-28T07:48:38;8.38;;;6.35;;
46463;SDS011;32161;48.148;-1.554;2024-02-28T07:51:07;9.40;;;7.45;;
46463;SDS011;32161;48.148;-1.554;2024-02-28T07:53:35;11.65;;;7.72;;
46463;SDS011;32161;48.148;-1.554;2024-02-28T07:56:03;11.65;;;7.28;;
46463;SDS011;32161;48.148;-1.554;2024-02-28T07:58:31;7.88;;;6.88;;
46463;SDS011;32161;48.148;-1.554;2024-02-28T08:00:58;13.93;;;7.82;;
46463;SDS011;32161;48.148;-1.554;2024-02-28T08:03:26;7.68;;;6.80;;
46463;SDS011;32161;48.148;-1.554;2024-02-28T08:05:53;9.60;;;6.90;;
46463;SDS011;32161;48.148;-1.554;2024-02-28T08:08:22;10.43;;;7.22;;
46463;SDS011;32161;48.148;-1.554;2024-02-28T08:10:50;7.18;;;5.93;;
46463;SDS011;32161;48.148;-1.554;2024-02-28T08:13:18;6.97;;;5.55;;
46463;SDS011;32161;48.148;-1.554;2024-02-28T08:15:46;5.78;;;5.18;;
46463;SDS011;32161;48.148;-1.554;2024-02-28T08:18:13;6.50;;;5.88;;
46463;SDS011;32161;48.148;-1.554;2024-02-28T08:20:41;6.55;;;5.88;;
46463;SDS011;32161;48.148;-1.554;2024-02-28T08:23:09;6.72;;;6.00;;
46463;SDS011;32161;48.148;-1.554;2024-02-28T08:25:37;6.78;;;5.93;;
46463;SDS011;32161;48.148;-1.554;2024-02-28T08:28:05;8.15;;;6.90;;
46463;SDS011;32161;48.148;-1.554;2024-02-28T08:30:33;8.23;;;6.60;;
46463;SDS011;32161;48.148;-1.554;2024-02-28T08:33:00;9.70;;;6.90;;
46463;SDS011;32161;48.148;-1.554;2024-02-28T08:35:28;9.35;;;6.22;;
46463;SDS011;32161;48.148;-1.554;2024-02-28T08:37:56;11.32;;;6.97;;
46463;SDS011;32161;48.148;-1.554;2024-02-28T08:40:23;11.68;;;7.53;;
46463;SDS011;32161;48.148;-1.554;2024-02-28T08:42:52;10.40;;;7.20;;
46463;SDS011;32161;48.148;-1.554;2024-02-28T08:45:20;9.20;;;7.28;;
46463;SDS011;32161;48.148;-1.554;2024-02-28T08:47:49;9.70;;;8.15;;
46463;SDS011;32161;48.148;-1.554;2024-02-28T08:50:17;9.88;;;7.45;;
46463;SDS011;32161;48.148;-1.554;2024-02-28T08:52:44;8.40;;;7.40;;
46463;SDS011;32161;48.148;-1.554;2024-02-28T08:55:12;8.20;;;6.50;;
46463;SDS011;32161;48.148;-1.554;2024-02-28T08:57:43;7.65;;;6.85;;
46463;SDS011;32161;48.148;-1.554;2024-02-28T09:00:13;9.02;;;7.55;;
46463;SDS011;32161;48.148;-1.554;2024-02-28T09:02:41;8.57;;;6.82;;
46463;SDS011;32161;48.148;-1.554;2024-02-28T09:05:09;9.98;;;7.00;;
46463;SDS011;32161;48.148;-1.554;2024-02-28T09:07:36;9.43;;;6.78;;
46463;SDS011;32161;48.148;-1.554;2024-02-28T09:10:04;10.35;;;7.25;;
46463;SDS011;32161;48.148;-1.554;2024-02-28T09:12:33;10.50;;;6.53;;
46463;SDS011;32161;48.148;-1.554;2024-02-28T09:15:00;7.70;;;6.90;;
46463;SDS011;32161;48.148;-1.554;2024-02-28T09:17:29;10.85;;;6.22;;
46463;SDS011;32161;48.148;-1.554;2024-02-28T09:19:57;6.97;;;6.28;;
46463;SDS011;32161;48.148;-1.554;2024-02-28T09:22:26;7.88;;;7.13;;
46463;SDS011;32161;48.148;-1.554;2024-02-28T09:24:53;10.40;;;6.95;;
46463;SDS011;32161;48.148;-1.554;2024-02-28T09:27:21;7.90;;;7.07;;
46463;SDS011;32161;48.148;-1.554;2024-02-28T09:29:49;8.82;;;6.70;;
46463;SDS011;32161;48.148;-1.554;2024-02-28T09:32:17;12.52;;;7.03;;
46463;SDS011;32161;48.148;-1.554;2024-02-28T09:34:46;9.13;;;6.93;;
46463;SDS011;32161;48.148;-1.554;2024-02-28T09:37:14;9.95;;;6.75;;
46463;SDS011;32161;48.148;-1.554;2024-02-28T09:39:42;10.05;;;6.85;;
46463;SDS011;32161;48.148;-1.554;2024-02-28T09:42:10;8.93;;;6.35;;
46463;SDS011;32161;48.148;-1.554;2024-02-28T09:44:38;11.13;;;8.77;;
46463;SDS011;32161;48.148;-1.554;2024-02-28T09:47:06;9.13;;;7.85;;
46463;SDS011;32161;48.148;-1.554;2024-02-28T09:49:36;8.73;;;7.75;;
46463;SDS011;32161;48.148;-1.554;2024-02-28T09:52:06;7.32;;;6.43;;
46463;SDS011;32161;48.148;-1.554;2024-02-28T09:54:33;7.75;;;6.95;;
46463;SDS011;32161;48.148;-1.554;2024-02-28T09:57:01;10.77;;;6.72;;
46463;SDS011;32161;48.148;-1.554;2024-02-28T09:59:30;9.43;;;7.13;;
46463;SDS011;32161;48.148;-1.554;2024-02-28T10:02:01;8.20;;;7.20;;
46463;SDS011;32161;48.148;-1.554;2024-02-28T10:04:31;10.02;;;7.78;;
46463;SDS011;32161;48.148;-1.554;2024-02-28T10:07:11;12.95;;;8.10;;
46463;SDS011;32161;48.148;-1.554;2024-02-28T10:09:39;7.93;;;7.13;;
46463;SDS011;32161;48.148;-1.554;2024-02-28T10:12:07;12.93;;;9.82;;
46463;SDS011;32161;48.148;-1.554;2024-02-28T10:14:35;12.55;;;9.02;;
46463;SDS011;32161;48.148;-1.554;2024-02-28T10:17:03;11.68;;;10.00;;
46463;SDS011;32161;48.148;-1.554;2024-02-28T10:19:33;12.35;;;10.75;;
46463;SDS011;32161;48.148;-1.554;2024-02-28T10:22:00;12.57;;;10.05;;
46463;SDS011;32161;48.148;-1.554;2024-02-28T10:24:29;11.52;;;9.25;;
46463;SDS011;32161;48.148;-1.554;2024-02-28T10:27:00;11.33;;;8.77;;
46463;SDS011;32161;48.148;-1.554;2024-02-28T10:29:28;9.70;;;8.35;;
46463;SDS011;32161;48.148;-1.554;2024-02-28T10:31:57;9.00;;;7.72;;
46463;SDS011;32161;48.148;-1.554;2024-02-28T10:34:25;10.25;;;7.85;;
46463;SDS011;32161;48.148;-1.554;2024-02-28T10:36:53;9.38;;;7.72;;
46463;SDS011;32161;48.148;-1.554;2024-02-28T10:39:21;12.65;;;9.43;;
46463;SDS011;32161;48.148;-1.554;2024-02-28T10:41:52;16.75;;;12.93;;
46463;SDS011;32161;48.148;-1.554;2024-02-28T10:44:20;17.20;;;13.38;;
46463;SDS011;32161;48.148;-1.554;2024-02-28T10:46:48;14.23;;;11.07;;
46463;SDS011;32161;48.148;-1.554;2024-02-28T10:49:16;12.10;;;9.50;;
46463;SDS011;32161;48.148;-1.554;2024-02-28T10:51:45;11.50;;;9.10;;
46463;SDS011;32161;48.148;-1.554;2024-02-28T10:54:16;10.90;;;9.15;;
46463;SDS011;32161;48.148;-1.554;2024-02-28T10:56:47;8.25;;;7.35;;
46463;SDS011;32161;48.148;-1.554;2024-02-28T10:59:16;7.35;;;6.65;;
46463;SDS011;32161;48.148;-1.554;2024-02-28T11:01:44;7.60;;;6.82;;
46463;SDS011;32161;48.148;-1.554;2024-02-28T11:04:12;10.25;;;6.80;;
46463;SDS011;32161;48.148;-1.554;2024-02-28T11:06:48;4.45;;;4.10;;
46463;SDS011;32161;48.148;-1.554;2024-02-28T11:09:20;4.05;;;3.70;;
46463;SDS011;32161;48.148;-1.554;2024-02-28T11:11:49;4.50;;;4.07;;
46463;SDS011;32161;48.148;-1.554;2024-02-28T11:14:18;4.55;;;4.15;;
46463;SDS011;32161;48.148;-1.554;2024-02-28T11:16:59;4.88;;;4.47;;
46463;SDS011;32161;48.148;-1.554;2024-02-28T11:19:27;6.03;;;5.38;;
46463;SDS011;32161;48.148;-1.554;2024-02-28T11:21:58;6.00;;;5.50;;
46463;SDS011;32161;48.148;-1.554;2024-02-28T11:24:30;7.35;;;6.28;;
46463;SDS011;32161;48.148;-1.554;2024-02-28T11:27:00;7.20;;;6.50;;
46463;SDS011;32161;48.148;-1.554;2024-02-28T11:29:30;7.20;;;6.43;;
46463;SDS011;32161;48.148;-1.554;2024-02-28T11:31:57;8.45;;;7.38;;
46463;SDS011;32161;48.148;-1.554;2024-02-28T11:34:25;8.55;;;7.22;;
46463;SDS011;32161;48.148;-1.554;2024-02-28T11:36:52;8.60;;;7.10;;
46463;SDS011;32161;48.148;-1.554;2024-02-28T11:39:20;8.73;;;7.82;;
46463;SDS011;32161;48.148;-1.554;2024-02-28T11:41:51;11.02;;;8.30;;
46463;SDS011;32161;48.148;-1.554;2024-02-28T11:44:19;8.93;;;7.90;;
46463;SDS011;32161;48.148;-1.554;2024-02-28T11:46:48;9.32;;;8.35;;
46463;SDS011;32161;48.148;-1.554;2024-02-28T11:49:17;8.90;;;7.90;;
46463;SDS011;32161;48.148;-1.554;2024-02-28T11:51:45;9.88;;;7.93;;
46463;SDS011;32161;48.148;-1.554;2024-02-28T11:54:13;10.43;;;8.68;;
46463;SDS011;32161;48.148;-1.554;2024-02-28T11:56:40;9.82;;;8.57;;
46463;SDS011;32161;48.148;-1.554;2024-02-28T11:59:08;7.97;;;7.18;;
46463;SDS011;32161;48.148;-1.554;2024-02-28T12:01:38;9.23;;;8.23;;
46463;SDS011;32161;48.148;-1.554;2024-02-28T12:04:10;8.93;;;8.00;;
46463;SDS011;32161;48.148;-1.554;2024-02-28T12:06:38;9.93;;;7.97;;
46463;SDS011;32161;48.148;-1.554;2024-02-28T12:09:08;8.80;;;7.50;;
46463;SDS011;32161;48.148;-1.554;2024-02-28T12:11:39;9.30;;;7.28;;
46463;SDS011;32161;48.148;-1.554;2024-02-28T12:14:07;8.02;;;7.32;;
46463;SDS011;32161;48.148;-1.554;2024-02-28T12:16:36;9.60;;;8.18;;
46463;SDS011;32161;48.148;-1.554;2024-02-28T12:19:06;7.95;;;7.15;;
46463;SDS011;32161;48.148;-1.554;2024-02-28T12:21:36;9.85;;;7.35;;
46463;SDS011;32161;48.148;-1.554;2024-02-28T12:24:05;7.25;;;6.55;;
46463;SDS011;32161;48.148;-1.554;2024-02-28T12:26:35;6.72;;;6.05;;
46463;SDS011;32161;48.148;-1.554;2024-02-28T12:29:03;6.00;;;5.47;;
46463;SDS011;32161;48.148;-1.554;2024-02-28T12:31:31;6.40;;;5.80;;
46463;SDS011;32161;48.148;-1.554;2024-02-28T12:33:58;6.57;;;5.90;;
46463;SDS011;32161;48.148;-1.554;2024-02-28T12:36:28;5.93;;;5.43;;
46463;SDS011;32161;48.148;-1.554;2024-02-28T12:38:56;5.07;;;4.68;;
46463;SDS011;32161;48.148;-1.554;2024-02-28T12:41:24;7.28;;;5.35;;
46463;SDS011;32161;48.148;-1.554;2024-02-28T12:43:53;7.43;;;6.18;;
46463;SDS011;32161;48.148;-1.554;2024-02-28T12:46:21;7.63;;;5.22;;
46463;SDS011;32161;48.148;-1.554;2024-02-28T12:48:48;5.60;;;5.20;;
46463;SDS011;32161;48.148;-1.554;2024-02-28T12:51:20;5.55;;;5.05;;
46463;SDS011;32161;48.148;-1.554;2024-02-28T12:54:05;5.85;;;5.18;;
46463;SDS011;32161;48.148;-1.554;2024-02-28T12:56:34;5.60;;;5.03;;
46463;SDS011;32161;48.148;-1.554;2024-02-28T12:59:02;5.07;;;4.78;;
46463;SDS011;32161;48.148;-1.554;2024-02-28T13:01:29;4.55;;;4.22;;
46463;SDS011;32161;48.148;-1.554;2024-02-28T13:03:57;5.65;;;5.00;;
46463;SDS011;32161;48.148;-1.554;2024-02-28T13:06:25;5.50;;;5.10;;
46463;SDS011;32161;48.148;-1.554;2024-02-28T13:08:54;5.85;;;5.20;;
46463;SDS011;32161;48.148;-1.554;2024-02-28T13:11:22;7.40;;;5.85;;
46463;SDS011;32161;48.148;-1.554;2024-02-28T13:13:51;5.97;;;5.00;;
46463;SDS011;32161;48.148;-1.554;2024-02-28T13:16:19;6.35;;;5.60;;
46463;SDS011;32161;48.148;-1.554;2024-02-28T13:18:47;5.57;;;5.15;;
46463;SDS011;32161;48.148;-1.554;2024-02-28T13:21:15;5.78;;;5.28;;
46463;SDS011;32161;48.148;-1.554;2024-02-28T13:23:43;4.97;;;4.55;;
46463;SDS011;32161;48.148;-1.554;2024-02-28T13:26:12;6.03;;;5.32;;
46463;SDS011;32161;48.148;-1.554;2024-02-28T13:28:42;8.50;;;5.75;;
46463;SDS011;32161;48.148;-1.554;2024-02-28T13:31:10;6.13;;;5.53;;
46463;SDS011;32161;48.148;-1.554;2024-02-28T13:33:38;7.78;;;7.03;;
46463;SDS011;32161;48.148;-1.554;2024-02-28T13:36:06;11.18;;;9.98;;
46463;SDS011;32161;48.148;-1.554;2024-02-28T13:38:34;13.93;;;11.48;;
46463;SDS011;32161;48.148;-1.554;2024-02-28T13:41:02;11.18;;;10.02;;
46463;SDS011;32161;48.148;-1.554;2024-02-28T13:43:31;8.00;;;7.30;;
46463;SDS011;32161;48.148;-1.554;2024-02-28T13:45:59;6.45;;;5.95;;
46463;SDS011;32161;48.148;-1.554;2024-02-28T13:48:27;6.50;;;5.90;;
46463;SDS011;32161;48.148;-1.554;2024-02-28T13:50:55;6.10;;;5.43;;
46463;SDS011;32161;48.148;-1.554;2024-02-28T13:53:24;5.80;;;5.35;;
46463;SDS011;32161;48.148;-1.554;2024-02-28T13:55:52;6.03;;;5.38;;
46463;SDS011;32161;48.148;-1.554;2024-02-28T13:58:20;6.32;;;5.65;;
46463;SDS011;32161;48.148;-1.554;2024-02-28T14:00:49;6.20;;;5.60;;
46463;SDS011;32161;48.148;-1.554;2024-02-28T14:03:17;5.53;;;5.03;;
46463;SDS011;32161;48.148;-1.554;2024-02-28T14:05:44;5.90;;;5.40;;
46463;SDS011;32161;48.148;-1.554;2024-02-28T14:08:12;5.65;;;5.18;;
46463;SDS011;32161;48.148;-1.554;2024-02-28T14:10:39;5.60;;;5.10;;
46463;SDS011;32161;48.148;-1.554;2024-02-28T14:13:07;5.60;;;4.82;;
46463;SDS011;32161;48.148;-1.554;2024-02-28T14:15:37;4.90;;;4.55;;
46463;SDS011;32161;48.148;-1.554;2024-02-28T14:18:06;5.40;;;5.00;;
46463;SDS011;32161;48.148;-1.554;2024-02-28T14:20:34;6.95;;;4.57;;
46463;SDS011;32161;48.148;-1.554;2024-02-28T14:23:03;4.75;;;4.45;;
46463;SDS011;32161;48.148;-1.554;2024-02-28T14:25:31;4.68;;;4.38;;
46463;SDS011;32161;48.148;-1.554;2024-02-28T14:27:58;5.10;;;3.88;;
46463;SDS011;32161;48.148;-1.554;2024-02-28T14:30:26;4.45;;;4.07;;
46463;SDS011;32161;48.148;-1.554;2024-02-28T14:32:53;4.35;;;3.95;;
46463;SDS011;32161;48.148;-1.554;2024-02-28T14:35:22;4.93;;;4.53;;